Time;durP1;ratioP1;P1;durP2;ratioP2;P2;SDS_P1;SDS_P2;PMS_P1;PMS_P2;Temp;Humidity;BMP_temperature;BMP_pressure;BME280_temperature;BME280_humidity;BME280_pressure;Samples;Min_cycle;Max_cycle;Signal;HPM_P1;HPM_P2
2021/05/10 00:01:53;;;;;;;8.03;2.60;;;;;;;;;;4863706;28;20231;-72
2021/05/10 00:04:15;;;;;;;6.57;2.30;;;;;;;;;;4872621;28;20208;-73
2021/05/10 00:06:38;;;;;;;3.97;2.07;;;6.90;99.90;;;;;;4868479;28;20247;-73
2021/05/10 00:09:02;;;;;;;14.63;3.40;;;6.90;99.90;;;;;;4850845;28;20202;-73
2021/05/10 00:11:25;;;;;;;7.63;2.70;;;6.90;1.00;;;;;;4859300;28;20194;-72
2021/05/10 00:13:49;;;;;;;6.30;2.23;;;6.70;99.90;;;;;;4866683;28;20185;-73
2021/05/10 00:16:12;;;;;;;10.50;2.93;;;6.90;1.00;;;;;;4866646;28;20777;-72
2021/05/10 00:18:34;;;;;;;4.30;2.10;;;;;;;;;;4862598;28;20185;-73
2021/05/10 00:20:56;;;;;;;5.63;2.23;;;6.40;1.00;;;;;;4874186;28;20201;-73
2021/05/10 00:23:19;;;;;;;8.40;2.40;;;6.60;1.00;;;;;;4864611;28;20218;-73
2021/05/10 00:25:41;;;;;;;6.07;2.30;;;;;;;;;;4865513;28;20186;-73
2021/05/10 00:28:04;;;;;;;11.87;3.13;;;6.50;1.00;;;;;;4865229;28;20529;-72
2021/05/10 00:30:26;;;;;;;7.97;2.43;;;6.50;12.30;;;;;;4860546;28;20288;-73
2021/05/10 00:32:49;;;;;;;5.90;2.20;;;;;;;;;;4870034;28;20190;-72
2021/05/10 00:35:12;;;;;;;13.83;3.43;;;6.40;1.00;;;;;;4868758;28;20243;-74
2021/05/10 00:37:34;;;;;;;5.67;2.37;;;;;;;;;;4865389;28;20190;-72
2021/05/10 00:39:57;;;;;;;5.70;2.27;;;6.30;1.00;;;;;;4867279;28;20246;-73
2021/05/10 00:42:19;;;;;;;8.70;3.33;;;6.20;1.00;;;;;;4873598;28;20201;-72
2021/05/10 00:44:41;;;;;;;8.50;2.80;;;6.10;1.00;;;;;;4874389;28;20213;-72
2021/05/10 00:47:04;;;;;;;13.07;3.63;;;6.20;99.90;;;;;;4866351;28;20243;-72
2021/05/10 00:49:26;;;;;;;7.80;2.97;;;6.70;99.90;;;;;;4874667;28;20232;-72
2021/05/10 00:51:48;;;;;;;5.30;2.63;;;6.00;99.90;;;;;;4869977;28;20190;-72
2021/05/10 00:54:10;;;;;;;12.40;3.53;;;6.20;99.90;;;;;;4865242;28;20248;-72
2021/05/10 00:56:33;;;;;;;10.07;3.37;;;5.90;99.90;;;;;;4868450;28;20383;-73
2021/05/10 00:58:55;;;;;;;4.43;2.47;;;5.90;1.00;;;;;;4868239;28;20216;-72
2021/05/10 01:01:17;;;;;;;6.77;2.67;;;;;;;;;;4858462;28;20244;-72
2021/05/10 01:03:40;;;;;;;8.80;3.10;;;4.30;1.00;;;;;;4864404;28;20202;-72
2021/05/10 01:06:03;;;;;;;12.57;4.03;;;;;;;;;;4869317;28;20213;-72
2021/05/10 01:08:25;;;;;;;7.47;3.37;;;5.80;99.90;;;;;;4867556;28;20232;-72
2021/05/10 01:10:47;;;;;;;9.37;3.87;;;5.80;1.00;;;;;;4871790;28;20251;-72
2021/05/10 01:13:10;;;;;;;12.07;4.10;;;5.80;1.00;;;;;;4864990;28;20190;-73
2021/05/10 01:15:32;;;;;;;7.00;3.23;;;5.70;1.00;;;;;;4867911;28;20189;-72
2021/05/10 01:17:54;;;;;;;5.23;3.07;;;;;;;;;;4867694;28;20816;-72
2021/05/10 01:20:17;;;;;;;12.00;4.10;;;5.60;53.00;;;;;;4865828;28;20185;-72
2021/05/10 01:22:44;;;;;;;10.97;4.23;;;5.50;1.00;;;;;;4864800;28;20191;-72
2021/05/10 01:25:08;;;;;;;14.30;4.70;;;5.50;1.00;;;;;;4866360;28;20288;-72
2021/05/10 01:27:31;;;;;;;6.57;3.40;;;5.50;19.80;;;;;;4873663;28;20671;-72
2021/05/10 01:29:53;;;;;;;7.23;3.30;;;5.40;99.90;;;;;;4872507;28;20311;-71
2021/05/10 01:32:15;;;;;;;8.73;3.43;;;5.40;99.90;;;;;;4872177;28;20274;-72
2021/05/10 01:34:37;;;;;;;5.50;2.97;;;;;;;;;;4853054;28;20250;-72
2021/05/10 01:37:00;;;;;;;15.53;4.20;;;;;;;;;;4867413;28;20189;-72
2021/05/10 01:39:22;;;;;;;8.17;3.43;;;5.20;99.90;;;;;;4871867;28;20291;-74
2021/05/10 01:41:45;;;;;;;9.23;3.90;;;;;;;;;;4868190;28;20208;-72
2021/05/10 01:44:07;;;;;;;10.77;4.10;;;5.30;99.90;;;;;;4864190;28;20251;-72
2021/05/10 01:46:29;;;;;;;9.10;4.07;;;5.20;1.00;;;;;;4870736;28;20190;-72
2021/05/10 01:48:51;;;;;;;6.63;3.07;;;5.20;1.00;;;;;;4863396;28;20267;-74
2021/05/10 01:51:14;;;;;;;5.57;3.37;;;5.90;1.00;;;;;;4871517;28;20617;-71
2021/05/10 01:53:36;;;;;;;7.67;3.70;;;;;;;;;;4863306;28;20206;-72
2021/05/10 01:55:59;;;;;;;11.67;4.10;;;5.20;1.00;;;;;;4864762;28;20181;-72
2021/05/10 01:58:22;;;;;;;8.93;3.80;;;;;;;;;;4866994;28;20275;-72
2021/05/10 02:00:46;;;;;;;28.07;7.00;;;5.00;1.00;;;;;;4870259;28;20186;-72
2021/05/10 02:03:10;;;;;;;10.40;3.97;;;5.30;1.00;;;;;;4868654;28;20201;-72
2021/05/10 02:08:28;;;;;;;7.40;3.47;;;5.10;1.00;;;;;;4887423;28;20220;-74
2021/05/10 02:10:51;;;;;;;5.77;2.87;;;5.00;1.00;;;;;;4873538;28;20252;-73
2021/05/10 02:13:16;;;;;;;6.20;3.03;;;4.90;1.00;;;;;;4896712;28;20193;-73
2021/05/10 02:15:41;;;;;;;17.03;4.90;;;4.30;1.00;;;;;;4897348;28;20193;-73
2021/05/10 02:18:04;;;;;;;8.50;3.57;;;4.80;1.00;;;;;;4897830;28;20180;-73
2021/05/10 02:20:28;;;;;;;6.83;3.40;;;4.90;1.00;;;;;;4896858;28;20200;-73
2021/05/10 02:22:51;;;;;;;6.70;3.47;;;4.80;1.00;;;;;;4898006;28;20445;-74
2021/05/10 02:25:18;;;;;;;7.33;3.27;;;4.80;1.00;;;;;;4897551;28;20212;-73
2021/05/10 02:27:40;;;;;;;9.73;3.77;;;4.60;1.00;;;;;;4887710;28;20268;-74
2021/05/10 02:30:04;;;;;;;5.90;3.20;;;4.70;1.00;;;;;;4897809;28;20543;-73
2021/05/10 02:32:26;;;;;;;7.30;3.70;;;4.90;1.00;;;;;;4869321;28;20193;-74
2021/05/10 02:34:48;;;;;;;10.17;4.33;;;4.60;1.00;;;;;;4892806;28;20185;-73
2021/05/10 02:37:12;;;;;;;10.07;4.20;;;4.60;1.00;;;;;;4879626;28;20744;-74
2021/05/10 02:39:34;;;;;;;5.60;3.17;;;;;;;;;;4897604;28;20242;-74
2021/05/10 02:41:56;;;;;;;5.57;3.37;;;4.90;1.00;;;;;;4871111;28;20198;-74
2021/05/10 02:44:18;;;;;;;7.20;3.63;;;4.80;1.00;;;;;;4896566;28;20341;-73
2021/05/10 02:46:41;;;;;;;10.00;3.60;;;4.10;1.00;;;;;;4892645;28;20182;-74
2021/05/10 02:49:03;;;;;;;6.10;3.33;;;;;;;;;;4886509;28;20205;-73
2021/05/10 02:51:25;;;;;;;6.27;3.40;;;;;;;;;;4894216;28;20192;-73
2021/05/10 02:53:47;;;;;;;9.00;3.83;;;4.40;1.00;;;;;;4897033;28;20181;-73
2021/05/10 02:56:10;;;;;;;9.17;3.60;;;3.90;1.00;;;;;;4896383;28;20201;-74
2021/05/10 02:58:32;;;;;;;6.27;3.60;;;;;;;;;;4896597;28;20189;-74
2021/05/10 03:00:54;;;;;;;5.90;3.40;;;;;;;;;;4894407;28;20508;-74
2021/05/10 03:03:17;;;;;;;8.47;4.17;;;4.40;1.00;;;;;;4896691;28;20337;-73
2021/05/10 03:05:40;;;;;;;11.50;4.47;;;;;;;;;;4884292;28;20289;-74
2021/05/10 03:08:02;;;;;;;6.73;3.83;;;;;;;;;;4876635;28;20189;-74
2021/05/10 03:10:26;;;;;;;8.87;4.07;;;4.30;1.00;;;;;;4876907;28;20587;-74
2021/05/10 03:12:48;;;;;;;12.17;4.67;;;4.50;1.00;;;;;;4877202;28;20243;-74
2021/05/10 03:15:13;;;;;;;7.23;3.77;;;4.50;1.00;;;;;;4877338;28;20286;-74
2021/05/10 03:17:35;;;;;;;5.07;3.43;;;;;;;;;;4870840;28;20775;-74
2021/05/10 03:19:58;;;;;;;5.63;3.67;;;4.50;1.00;;;;;;4876689;28;20193;-74
2021/05/10 03:22:20;;;;;;;9.23;3.90;;;;;;;;;;4877132;28;20263;-73
2021/05/10 03:24:42;;;;;;;10.47;4.63;;;4.60;1.00;;;;;;4877360;28;20255;-73
2021/05/10 03:27:04;;;;;;;8.30;4.13;;;4.70;1.00;;;;;;4877439;28;20197;-74
2021/05/10 03:29:27;;;;;;;11.03;4.27;;;;;;;;;;4876069;28;20723;-74
2021/05/10 03:31:49;;;;;;;11.97;4.40;;;4.70;1.00;;;;;;4876929;28;20708;-73
2021/05/10 03:34:11;;;;;;;9.40;4.10;;;;;;;;;;4876422;28;20251;-72
2021/05/10 03:36:34;;;;;;;6.27;3.57;;;4.60;4.90;;;;;;4875668;28;20630;-72
2021/05/10 03:38:56;;;;;;;5.40;3.23;;;4.70;1.00;;;;;;4877683;28;20193;-73
2021/05/10 03:41:18;;;;;;;7.57;3.67;;;4.80;4.20;;;;;;4859156;28;20189;-73
2021/05/10 03:43:40;;;;;;;7.93;3.63;;;4.60;1.50;;;;;;4876787;28;20181;-74
2021/05/10 03:46:03;;;;;;;8.00;3.60;;;4.60;1.00;;;;;;4876349;28;20196;-73
2021/05/10 03:48:25;;;;;;;7.63;3.53;;;4.50;1.00;;;;;;4877296;28;20185;-73
2021/05/10 03:50:47;;;;;;;11.10;4.00;;;4.60;1.00;;;;;;4863367;28;20186;-73
2021/05/10 03:53:10;;;;;;;8.20;4.00;;;4.70;1.00;;;;;;4874535;28;20547;-74
2021/05/10 03:55:32;;;;;;;7.03;3.80;;;4.70;5.30;;;;;;4876841;28;20181;-73
2021/05/10 03:57:56;;;;;;;11.23;4.27;;;;;;;;;;4876904;28;20186;-73
2021/05/10 04:00:19;;;;;;;7.60;3.80;;;5.10;1.00;;;;;;4876774;28;20243;-73
2021/05/10 04:02:41;;;;;;;14.20;5.07;;;;;;;;;;4872419;28;20630;-73
2021/05/10 04:05:12;;;;;;;7.67;3.93;;;5.10;19.40;;;;;;4876322;28;20225;-73
2021/05/10 04:07:46;;;;;;;7.30;4.03;;;;;;;;;;4870661;28;21003;-73
2021/05/10 04:15:29;;;;;;;8.10;4.10;;;5.60;28.70;;;;;;4875001;28;20723;-73
2021/05/10 04:17:51;;;;;;;13.47;4.97;;;5.80;4.80;;;;;;4876452;28;20596;-74
2021/05/10 04:20:14;;;;;;;8.03;4.27;;;5.90;27.70;;;;;;4875974;28;20248;-73
2021/05/10 04:22:38;;;;;;;7.77;3.70;;;6.20;9.70;;;;;;4876363;28;20762;-74
2021/05/10 04:24:59;;;;;;;7.40;3.50;;;6.20;1.00;;;;;;4875810;28;20690;-74
2021/05/10 04:27:22;;;;;;;6.13;3.33;;;6.50;1.00;;;;;;4876197;28;20185;-73
2021/05/10 04:29:44;;;;;;;13.57;4.40;;;;;;;;;;4876205;28;20189;-73
2021/05/10 04:32:07;;;;;;;6.97;3.50;;;;;;;;;;4876202;28;20194;-73
2021/05/10 04:34:29;;;;;;;8.47;3.50;;;6.80;1.00;;;;;;4857822;28;20201;-74
2021/05/10 04:36:51;;;;;;;10.70;3.57;;;;;;;;;;4874226;28;20198;-73
2021/05/10 04:39:16;;;;;;;4.67;2.23;;;7.00;1.00;;;;;;4876083;28;20376;-73
2021/05/10 04:41:38;;;;;;;8.90;2.70;;;7.40;1.00;;;;;;4876026;28;20181;-74
2021/05/10 04:44:01;;;;;;;7.53;2.13;;;7.50;1.00;;;;;;4875927;28;20246;-74
2021/05/10 04:46:23;;;;;;;7.30;2.53;;;6.80;1.00;;;;;;4866264;28;20201;-73
2021/05/10 04:48:45;;;;;;;11.23;3.00;;;7.50;99.90;;;;;;4872902;28;20209;-73
2021/05/10 04:51:07;;;;;;;5.07;2.03;;;7.80;99.90;;;;;;4874935;28;20599;-73
2021/05/10 04:53:29;;;;;;;6.27;2.20;;;8.00;1.00;;;;;;4846897;28;20202;-73
2021/05/10 04:55:51;;;;;;;12.13;5.53;;;8.00;99.90;;;;;;4871779;28;20240;-74
2021/05/10 04:58:13;;;;;;;10.63;5.37;;;8.20;1.00;;;;;;4876047;28;20544;-72
2021/05/10 05:00:36;;;;;;;46.60;12.43;;;8.30;99.90;;;;;;4873739;28;20247;-73
2021/05/10 05:02:58;;;;;;;11.40;5.57;;;8.40;1.00;;;;;;4874982;28;20547;-72
2021/05/10 05:05:20;;;;;;;10.90;5.40;;;9.00;1.00;;;;;;4874788;28;20229;-73
2021/05/10 05:07:43;;;;;;;11.57;4.83;;;;;;;;;;4875755;28;20188;-73
2021/05/10 05:10:06;;;;;;;9.17;4.33;;;8.80;1.00;;;;;;4875641;28;20216;-72
2021/05/10 05:12:28;;;;;;;7.17;3.80;;;9.10;1.00;;;;;;4850861;28;20189;-71
2021/05/10 05:14:50;;;;;;;9.90;3.50;;;;;;;;;;4875723;28;20609;-72
2021/05/10 05:17:13;;;;;;;7.20;2.57;;;9.10;1.00;;;;;;4875527;28;20255;-72
2021/05/10 05:19:35;;;;;;;4.33;1.73;;;;;;;;;;4857197;28;20206;-73
2021/05/10 05:21:57;;;;;;;4.73;1.63;;;10.10;1.00;;;;;;4875864;28;20255;-73
2021/05/10 05:24:19;;;;;;;7.50;1.97;;;;;;;;;;4872332;28;20201;-72
2021/05/10 05:26:41;;;;;;;8.43;2.17;;;10.40;1.00;;;;;;4875740;28;20597;-73
2021/05/10 05:29:04;;;;;;;5.87;1.73;;;;;;;;;;4875830;28;20239;-73
2021/05/10 05:31:26;;;;;;;7.47;1.90;;;11.20;1.00;;;;;;4877203;28;20186;-72
2021/05/10 05:33:48;;;;;;;9.47;2.23;;;10.60;99.90;;;;;;4879309;28;20185;-72
2021/05/10 05:36:10;;;;;;;8.93;1.97;;;10.80;99.90;;;;;;4878518;28;20185;-73
2021/05/10 05:38:35;;;;;;;5.40;1.60;;;10.90;1.00;;;;;;4879758;28;20181;-72
2021/05/10 05:40:57;;;;;;;3.53;1.20;;;11.20;1.00;;;;;;4861344;28;20194;-73
2021/05/10 05:43:19;;;;;;;7.17;1.93;;;11.70;99.90;;;;;;4879373;28;20190;-73
2021/05/10 05:45:42;;;;;;;11.80;3.23;;;11.80;99.90;;;;;;4878812;28;20566;-73
2021/05/10 05:48:04;;;;;;;11.40;4.37;;;11.70;99.90;;;;;;4878827;28;20189;-72
2021/05/10 05:50:27;;;;;;;12.27;8.37;;;11.70;1.00;;;;;;4871423;28;20600;-73
2021/05/10 05:52:50;;;;;;;13.60;3.30;;;;;;;;;;4878589;28;20232;-73
2021/05/10 05:55:15;;;;;;;7.17;4.03;;;;;;;;;;4879140;28;20296;-73
2021/05/10 05:57:37;;;;;;;9.80;6.50;;;;;;;;;;4879599;28;20193;-74
2021/05/10 06:00:02;;;;;;;7.00;3.23;;;;;;;;;;4879761;28;20235;-73
2021/05/10 06:02:23;;;;;;;13.90;2.67;;;12.30;1.00;;;;;;4859231;28;20260;-72
2021/05/10 06:04:46;;;;;;;17.27;3.43;;;;;;;;;;4878374;28;20243;-74
2021/05/10 06:07:08;;;;;;;8.20;1.80;;;13.10;1.00;;;;;;4879542;28;20719;-73
2021/05/10 06:09:31;;;;;;;9.67;2.27;;;;;;;;;;4879808;28;20185;-73
2021/05/10 06:11:55;;;;;;;19.23;3.23;;;;;;;;;;4879336;28;20185;-74
2021/05/10 06:14:17;;;;;;;11.87;2.40;;;;;;;;;;4879739;28;20251;-73
2021/05/10 06:16:39;;;;;;;69.30;60.90;;;;;;;;;;4878280;28;20197;-73
2021/05/10 06:19:01;;;;;;;87.27;78.20;;;;;;;;;;4861361;28;20202;-74
2021/05/10 06:21:24;;;;;;;137.80;94.73;;;;;;;;;;4878036;28;20190;-73
2021/05/10 06:23:48;;;;;;;117.13;87.40;;;14.90;99.90;;;;;;4878925;28;20185;-73
2021/05/10 06:26:10;;;;;;;39.47;34.50;;;;;;;;;;4877149;28;20197;-75
2021/05/10 06:28:33;;;;;;;34.27;31.27;;;;;;;;;;4878290;28;20235;-74
2021/05/10 06:30:55;;;;;;;18.27;2.87;;;;;;;;;;4878211;28;20235;-75
2021/05/10 06:33:17;;;;;;;9.27;1.50;;;;;;;;;;4878077;28;20565;-75
2021/05/10 06:35:39;;;;;;;14.23;2.07;;;;;;;;;;4876208;28;20762;-74
2021/05/10 06:38:02;;;;;;;8.03;1.50;;;;;;;;;;4878844;28;20207;-75
2021/05/10 06:40:24;;;;;;;10.03;1.57;;;15.90;99.90;;;;;;4860421;28;20603;-74
2021/05/10 06:42:47;;;;;;;18.70;2.60;;;;;;;;;;4878214;28;20565;-75
2021/05/10 06:45:09;;;;;;;18.50;2.50;;;16.30;99.90;;;;;;4877906;28;20267;-74
2021/05/10 06:47:32;;;;;;;9.10;1.57;;;;;;;;;;4878198;28;20185;-75
2021/05/10 06:49:54;;;;;;;22.70;3.03;;;;;;;;;;4878018;28;20181;-74
2021/05/10 06:52:18;;;;;;;5.87;1.10;;;;;;;;;;4874721;28;20628;-75
2021/05/10 06:54:41;;;;;;;6.00;1.20;;;;;;;;;;4872716;28;20193;-80
2021/05/10 06:57:03;;;;;;;15.10;2.57;;;17.20;99.90;;;;;;4869164;28;20225;-77
2021/05/10 06:59:26;;;;;;;10.53;1.93;;;;;;;;;;4876905;28;20185;-83
2021/05/10 07:01:48;;;;;;;10.00;1.93;;;17.80;1.00;;;;;;4865293;28;20222;-77
2021/05/10 07:04:11;;;;;;;9.30;2.03;;;;;;;;;;4866079;28;20278;-76
2021/05/10 07:06:33;;;;;;;8.57;1.83;;;;;;;;;;4857991;28;20982;-80
2021/05/10 07:08:55;;;;;;;11.10;2.30;;;;;;;;;;4875885;28;20189;-78
2021/05/10 07:11:17;;;;;;;7.70;1.73;;;;;;;;;;4881379;28;21050;-80
2021/05/10 07:13:40;;;;;;;7.80;1.87;;;18.80;99.90;;;;;;4876648;28;20655;-78
2021/05/10 07:16:03;;;;;;;5.97;1.47;;;;;;;;;;4841498;28;20282;-77
2021/05/10 07:18:25;;;;;;;4.87;1.20;;;;;;;;;;4867474;28;20193;-82
2021/05/10 07:20:48;;;;;;;15.30;2.97;;;19.90;99.90;;;;;;4876530;28;20251;-77
2021/05/10 07:23:12;;;;;;;9.27;1.97;;;20.20;99.90;;;;;;4842617;28;20191;-78
2021/05/10 07:25:34;;;;;;;7.13;1.50;;;20.40;99.90;;;;;;4870927;28;20233;-76
2021/05/10 07:27:56;;;;;;;13.10;2.77;;;;;;;;;;4857321;28;20717;-80
2021/05/10 07:30:20;;;;;;;6.27;1.50;;;20.90;1.00;;;;;;4876086;28;20197;-82
2021/05/10 07:32:42;;;;;;;5.83;1.40;;;;;;;;;;4876646;28;20185;-78
2021/05/10 07:35:05;;;;;;;9.87;2.10;;;21.60;99.90;;;;;;4858078;28;20211;-77
2021/05/10 07:37:27;;;;;;;6.07;1.53;;;;;;;;;;4850777;28;20208;-77
2021/05/10 07:39:49;;;;;;;9.93;2.27;;;;;;;;;;4875139;28;20254;-80
2021/05/10 07:42:12;;;;;;;10.70;2.40;;;;;;;;;;4858581;28;20204;-79
2021/05/10 07:44:34;;;;;;;5.70;1.40;;;;;;;;;;4876534;28;20190;-79
2021/05/10 07:46:57;;;;;;;8.60;2.03;;;22.30;99.90;;;;;;4874393;28;20239;-77
2021/05/10 07:49:19;;;;;;;12.53;2.83;;;;;;;;;;4873418;28;20240;-75
2021/05/10 07:51:41;;;;;;;4.00;1.10;;;;;;;;;;4858156;28;20196;-75
2021/05/10 07:54:04;;;;;;;10.23;2.30;;;;;;;;;;4874696;28;20191;-78
2021/05/10 07:56:26;;;;;;;7.27;1.60;;;21.50;1.00;;;;;;4878491;28;20233;-79
2021/05/10 07:58:49;;;;;;;8.87;2.00;;;;;;;;;;4857800;28;20201;-78
2021/05/10 08:01:11;;;;;;;4.50;1.03;;;;;;;;;;4854176;28;20282;-80
2021/05/10 08:03:34;;;;;;;4.93;1.20;;;22.00;99.90;;;;;;4841664;28;20255;-79
2021/05/10 08:05:56;;;;;;;9.80;2.27;;;;;;;;;;4874579;28;20563;-77
2021/05/10 08:08:22;;;;;;;9.40;2.17;;;22.10;99.90;;;;;;4875753;28;20193;-75
2021/05/10 08:10:44;;;;;;;15.27;3.33;;;;;;;;;;4873239;28;20232;-78
2021/05/10 08:13:07;;;;;;;5.20;1.20;;;;;;;;;;4875807;28;20233;-77
2021/05/10 08:15:29;;;;;;;6.27;1.50;;;;;;;;;;4840408;28;20206;-76
2021/05/10 08:17:51;;;;;;;12.43;2.77;;;;;;;;;;4857830;28;20209;-73
2021/05/10 08:20:15;;;;;;;7.03;1.60;;;22.60;1.00;;;;;;4876856;28;20311;-74
2021/05/10 08:22:37;;;;;;;4.03;1.03;;;;;;;;;;4875032;28;20219;-84
2021/05/10 08:25:00;;;;;;;8.97;2.13;;;;;;;;;;4874425;28;20235;-73
2021/05/10 08:27:22;;;;;;;3.20;0.87;;;;;;;;;;4856958;28;20229;-76
2021/05/10 08:29:44;;;;;;;7.33;1.73;;;;;;;;;;4857158;28;20244;-76
2021/05/10 08:32:07;;;;;;;6.87;1.60;;;;;;;;;;4872432;28;20197;-73
2021/05/10 08:34:29;;;;;;;5.90;1.47;;;;;;;;;;4875263;28;20249;-80
2021/05/10 08:36:53;;;;;;;8.63;1.93;;;23.00;99.90;;;;;;4872993;28;20651;-76
2021/05/10 08:39:16;;;;;;;8.40;2.00;;;;;;;;;;4873753;28;20528;-79
2021/05/10 08:41:39;;;;;;;7.37;1.57;;;23.00;99.90;;;;;;4857683;28;20652;-74
2021/05/10 08:44:03;;;;;;;6.60;1.60;;;23.00;99.90;;;;;;4874164;28;20198;-76
2021/05/10 08:46:26;;;;;;;6.57;1.50;;;;;;;;;;4838662;28;20224;-77
2021/05/10 08:48:48;;;;;;;10.43;2.07;;;;;;;;;;4857152;28;20207;-74
2021/05/10 08:51:11;;;;;;;4.27;1.07;;;23.30;99.90;;;;;;4875278;28;20196;-73
2021/05/10 08:53:36;;;;;;;12.57;2.47;;;23.60;99.90;;;;;;4871600;28;20671;-82
2021/05/10 08:55:58;;;;;;;9.80;1.60;;;;;;;;;;4873402;28;20236;-79
2021/05/10 08:58:20;;;;;;;8.47;1.40;;;;;;;;;;4857400;28;20749;-77
2021/05/10 09:00:52;;;;;;;45.23;7.77;;;24.80;99.90;;;;;;4858187;28;20229;-73
2021/05/10 09:03:14;;;;;;;10.60;1.63;;;;;;;;;;4874333;28;20281;-76
2021/05/10 09:05:46;;;;;;;8.43;1.47;;;25.70;99.90;;;;;;4855660;28;20236;-73
2021/05/10 09:08:08;;;;;;;12.47;1.80;;;;;;;;;;4879522;28;20180;-73
2021/05/10 09:10:32;;;;;;;11.03;1.90;;;26.80;99.90;;;;;;4861934;28;20244;-74
2021/05/10 09:12:55;;;;;;;23.00;3.10;;;;;;;;;;4861161;28;20691;-81
2021/05/10 09:15:20;;;;;;;16.50;3.43;;;29.50;99.90;;;;;;4860442;28;20205;-77
2021/05/10 09:17:46;;;;;;;6.70;1.60;;;31.60;99.90;;;;;;4879305;28;20238;-76
2021/05/10 09:20:15;;;;;;;4.40;1.07;;;33.40;99.90;;;;;;4879288;28;20661;-76
2021/05/10 09:22:47;;;;;;;9.87;1.60;;;35.00;99.90;;;;;;4879135;28;20231;-83
2021/05/10 09:25:10;;;;;;;36.78;5.25;;;;;;;;;;4876004;28;20294;-80
2021/05/10 09:27:33;;;;;;;11.65;1.80;;;38.50;1.00;;;;;;4843654;28;20194;-75
2021/05/10 09:30:19;;;;;;;18.17;2.85;;;40.00;1.00;;;;;;4878926;28;20207;-83
2021/05/10 09:32:46;;;;;;;20.40;3.35;;;41.60;99.90;;;;;;4873595;28;20189;-75
2021/05/10 09:35:26;;;;;;;25.38;3.63;;;42.00;1.00;;;;;;4876056;28;20197;-73
2021/05/10 09:38:07;;;;;;;12.18;2.05;;;42.70;99.90;;;;;;4877606;28;20189;-80
2021/05/10 09:40:38;;;;;;;5.05;0.90;;;43.70;99.90;;;;;;4872356;28;20193;-77
2021/05/10 09:43:01;;;;;;;12.80;2.08;;;44.50;99.90;;;;;;4860953;28;20198;-78
2021/05/10 09:45:32;;;;;;;13.50;2.30;;;45.50;99.90;;;;;;4875975;28;20555;-78
2021/05/10 09:48:04;;;;;;;10.30;1.95;;;46.00;1.00;;;;;;4843835;28;20195;-74
2021/05/10 09:50:32;;;;;;;5.47;1.08;;;47.20;99.90;;;;;;4862935;28;20916;-72
2021/05/10 09:52:55;;;;;;;13.90;2.47;;;48.10;99.90;;;;;;4861411;28;20206;-80
2021/05/10 09:55:18;;;;;;;29.30;4.75;;;;;;;;;;4858760;28;20201;-75
2021/05/10 09:57:55;;;;;;;11.85;2.20;;;49.60;1.00;;;;;;4878728;28;20193;-80
2021/05/10 10:00:21;;;;;;;10.45;1.85;;;50.50;99.90;;;;;;4875522;28;20193;-79
2021/05/10 10:02:43;;;;;;;12.43;2.15;;;;;;;;;;4876922;28;20353;-80
2021/05/10 10:05:06;;;;;;;17.20;2.92;;;50.90;99.90;;;;;;4860309;28;20811;-76
2021/05/10 10:07:28;;;;;;;11.00;1.95;;;;;;;;;;4870209;28;20192;-76
2021/05/10 10:09:51;;;;;;;19.52;3.30;;;;;;;;;;4874482;28;20600;-74
2021/05/10 10:12:13;;;;;;;9.95;1.85;;;;;;;;;;4862245;28;20189;-79
2021/05/10 10:14:35;;;;;;;11.43;2.08;;;52.90;1.00;;;;;;4878156;28;20195;-80
2021/05/10 10:16:59;;;;;;;15.18;2.75;;;52.90;99.90;;;;;;4876287;28;20212;-78
2021/05/10 10:19:21;;;;;;;10.73;2.00;;;;;;;;;;4877811;28;20188;-78
2021/05/10 10:21:43;;;;;;;11.20;1.98;;;;;;;;;;4876808;28;20172;-80
2021/05/10 10:24:09;;;;;;;19.00;3.05;;;54.30;99.90;;;;;;4876953;28;20219;-78
2021/05/10 10:26:34;;;;;;;49.85;46.17;;;54.10;1.00;;;;;;4852434;28;20186;-81
2021/05/10 10:28:57;;;;;;;51.75;42.03;;;;;;;;;;4859718;28;20184;-84
2021/05/10 10:31:24;;;;;;;200.00;185.93;;;55.90;99.90;;;;;;4860038;28;20206;-83
2021/05/10 10:33:50;;;;;;;491.60;459.27;;;56.30;99.90;;;;;;4876470;28;20193;-76
2021/05/10 10:36:21;;;;;;;55.60;50.42;;;56.90;99.90;;;;;;4876784;28;20244;-78
2021/05/10 10:38:43;;;;;;;98.93;92.68;;;;;;;;;;4877321;28;20203;-74
2021/05/10 10:41:20;;;;;;;77.63;71.95;;;56.90;99.90;;;;;;4857980;28;21088;-76
2021/05/10 10:43:42;;;;;;;80.95;74.55;;;56.90;99.90;;;;;;4852863;28;20205;-74
2021/05/10 10:46:31;;;;;;;42.63;38.40;;;56.80;99.90;;;;;;4876159;28;20200;-78
2021/05/10 10:48:56;;;;;;;43.53;19.20;;;56.30;99.90;;;;;;4839107;28;20201;-72
2021/05/10 10:51:19;;;;;;;17.60;3.70;;;55.40;1.00;;;;;;4877313;28;20601;-81
2021/05/10 10:53:43;;;;;;;24.60;4.43;;;54.50;99.90;;;;;;4841044;28;20244;-82
2021/05/10 10:56:05;;;;;;;16.58;3.05;;;;;;;;;;4874419;28;20317;-74
2021/05/10 10:58:27;;;;;;;18.60;3.28;;;53.50;99.90;;;;;;4872879;28;20250;-74
2021/05/10 11:01:00;;;;;;;52.65;7.25;;;52.00;99.90;;;;;;4875173;28;20215;-85
2021/05/10 11:03:23;;;;;;;15.75;2.60;;;51.40;99.90;;;;;;4859467;28;20213;-79
2021/05/10 11:05:47;;;;;;;15.55;2.55;;;50.90;99.90;;;;;;4857381;28;20221;-76
2021/05/10 11:08:14;;;;;;;15.65;2.55;;;;;;;;;;4876521;28;20254;-72
2021/05/10 11:10:55;;;;;;;12.45;2.15;;;50.00;99.90;;;;;;4870922;28;20239;-77
2021/05/10 11:13:37;;;;;;;17.00;2.78;;;49.90;1.00;;;;;;4875518;28;20227;-75
2021/05/10 11:16:00;;;;;;;26.05;3.80;;;50.90;99.90;;;;;;4875104;28;20204;-72
2021/05/10 11:18:35;;;;;;;13.07;2.20;;;51.60;1.00;;;;;;4870858;28;20204;-72
2021/05/10 11:20:58;;;;;;;28.83;4.20;;;49.60;99.90;;;;;;4874742;28;20692;-78
2021/05/10 11:23:31;;;;;;;18.40;2.63;;;49.00;1.00;;;;;;4876030;28;20637;-73
2021/05/10 11:25:55;;;;;;;30.88;5.30;;;46.80;99.90;;;;;;4873349;28;20212;-79
2021/05/10 11:28:45;;;;;;;17.48;3.67;;;45.50;99.90;;;;;;4876524;28;20715;-74
2021/05/10 11:31:10;;;;;;;11.48;3.03;;;44.60;99.90;;;;;;4830499;28;20197;-71
2021/05/10 11:34:08;;;;;;;9.52;1.55;;;44.00;99.90;;;;;;4859273;28;20617;-75
2021/05/10 11:36:32;;;;;;;15.73;2.45;;;42.90;99.90;;;;;;4874633;28;20201;-73
2021/05/10 11:38:56;;;;;;;21.30;2.85;;;42.40;99.90;;;;;;4873314;28;20235;-73
2021/05/10 11:41:18;;;;;;;10.85;1.75;;;;;;;;;;4874926;28;20205;-75
2021/05/10 11:43:40;;;;;;;10.48;1.58;;;;;;;;;;4876847;28;20185;-73
2021/05/10 11:46:03;;;;;;;26.50;3.53;;;;;;;;;;4858123;28;20218;-77
2021/05/10 11:48:46;;;;;;;14.23;2.15;;;43.10;99.90;;;;;;4858345;28;20251;-73
2021/05/10 11:51:21;;;;;;;19.15;2.70;;;44.20;99.90;;;;;;4871419;28;20213;-71
2021/05/10 11:53:44;;;;;;;16.50;8.82;;;44.80;99.90;;;;;;4858781;28;20601;-73
2021/05/10 11:56:06;;;;;;;24.17;3.25;;;;;;;;;;4875475;28;20246;-73
2021/05/10 11:58:44;;;;;;;18.15;2.67;;;45.50;99.90;;;;;;4858503;28;20298;-72
2021/05/10 12:01:07;;;;;;;11.65;1.98;;;;;;;;;;4886451;28;20719;-74
2021/05/10 12:03:29;;;;;;;17.08;10.02;;;;;;;;;;4876160;28;20512;-73
2021/05/10 12:05:52;;;;;;;19.08;2.70;;;;;;;;;;4875219;28;20283;-76
2021/05/10 12:08:17;;;;;;;15.90;2.35;;;;;;;;;;4874713;28;20201;-71
2021/05/10 12:10:40;;;;;;;11.50;1.88;;;43.90;99.90;;;;;;4874239;28;20189;-71
2021/05/10 12:13:02;;;;;;;22.50;3.10;;;;;;;;;;4857520;28;20198;-71
2021/05/10 12:15:27;;;;;;;16.55;2.38;;;42.10;99.90;;;;;;4875642;28;20729;-73
2021/05/10 12:17:52;;;;;;;23.08;3.17;;;41.00;99.90;;;;;;4875770;28;20193;-74
2021/05/10 12:20:16;;;;;;;31.00;4.18;;;40.70;99.90;;;;;;4856729;28;20209;-71
2021/05/10 12:22:40;;;;;;;14.90;2.17;;;40.40;99.90;;;;;;4870387;28;20258;-73
2021/05/10 12:25:13;;;;;;;34.78;6.25;;;40.10;99.90;;;;;;4871949;28;20193;-77
2021/05/10 12:27:42;;;;;;;47.50;34.10;;;40.10;19.80;;;;;;4859407;28;20243;-73
2021/05/10 12:30:10;;;;;;;36.13;20.83;;;40.70;99.90;;;;;;4872966;28;20217;-75
2021/05/10 12:32:33;;;;;;;23.98;14.27;;;40.50;99.90;;;;;;4856829;28;20185;-75
2021/05/10 12:34:56;;;;;;;23.92;6.78;;;;;;;;;;4874800;28;20239;-73
2021/05/10 12:37:19;;;;;;;14.25;6.15;;;;;;;;;;4858713;28;20198;-77
2021/05/10 12:39:41;;;;;;;13.70;11.75;;;;;;;;;;4875298;28;20185;-76
2021/05/10 12:42:17;;;;;;;44.60;30.02;;;42.90;15.60;;;;;;4874048;28;20246;-78
2021/05/10 12:44:40;;;;;;;35.03;31.70;;;43.90;99.90;;;;;;4855925;28;20213;-74
2021/05/10 12:47:02;;;;;;;30.95;18.33;;;;;;;;;;4855866;28;20649;-75
2021/05/10 12:49:24;;;;;;;35.05;31.95;;;;;;;;;;4867145;28;20615;-76
2021/05/10 12:51:53;;;;;;;15.82;4.68;;;44.30;99.90;;;;;;4875923;28;20185;-77
2021/05/10 12:54:15;;;;;;;19.25;7.85;;;;;;;;;;4839319;28;20297;-75
2021/05/10 12:56:42;;;;;;;18.27;7.18;;;41.80;99.90;;;;;;4873323;28;20263;-72
2021/05/10 12:59:04;;;;;;;26.67;6.22;;;;;;;;;;4874388;28;20201;-78
2021/05/10 13:01:29;;;;;;;15.30;4.25;;;39.80;99.90;;;;;;4867965;28;20687;-73
2021/05/10 13:03:59;;;;;;;30.15;19.48;;;39.70;99.90;;;;;;4856236;28;20225;-72
2021/05/10 13:06:26;;;;;;;22.45;15.75;;;39.60;99.90;;;;;;4872642;28;20224;-72
2021/05/10 13:08:49;;;;;;;32.28;29.92;;;39.70;99.90;;;;;;4875657;28;20189;-72
2021/05/10 13:11:15;;;;;;;25.15;16.10;;;39.90;99.90;;;;;;4857943;28;20189;-71
2021/05/10 13:13:39;;;;;;;21.75;9.48;;;39.70;99.90;;;;;;4875813;28;20185;-72
2021/05/10 13:16:24;;;;;;;30.77;7.15;;;39.40;99.90;;;;;;4873320;28;20189;-76
2021/05/10 13:18:54;;;;;;;20.15;14.98;;;38.90;99.90;;;;;;4841270;28;20202;-76